createdAt,value
2018-06-14T00:00:19.166Z,101244.03
2018-06-14T00:01:24.866Z,101246.61
2018-06-14T00:02:30.406Z,101252.14
2018-06-14T00:03:35.821Z,101247.89
2018-06-14T00:04:41.270Z,101250.56
2018-06-14T00:05:46.844Z,101250.69
2018-06-14T00:06:52.411Z,101247.51
2018-06-14T00:07:57.504Z,101250.47
2018-06-14T00:09:02.892Z,101248.44
2018-06-14T00:10:08.646Z,101249.47
2018-06-14T00:11:14.077Z,101246.58
2018-06-14T00:12:19.780Z,101249.64
2018-06-14T00:13:25.189Z,101244.08
2018-06-14T00:14:30.671Z,101247.96
2018-06-14T00:15:36.151Z,101253.55
2018-06-14T00:16:41.583Z,101246.70
2018-06-14T00:17:47.071Z,101248.44
2018-06-14T00:18:52.528Z,101245.91
2018-06-14T00:19:57.942Z,101251.05
2018-06-14T00:21:03.702Z,101248.09
2018-06-14T00:22:09.105Z,101244.27
2018-06-14T00:23:14.685Z,101244.23
2018-06-14T00:24:20.469Z,101247.19
2018-06-14T00:25:25.881Z,101249.56
2018-06-14T00:26:31.343Z,101250.31
2018-06-14T00:27:36.753Z,101246.87
2018-06-14T00:28:42.200Z,101247.25
2018-06-14T00:29:47.601Z,101245.20
2018-06-14T00:30:52.997Z,101247.36
2018-06-14T00:31:58.517Z,101251.11
2018-06-14T00:33:03.930Z,101248.92
2018-06-14T00:34:09.390Z,101250.18
2018-06-14T00:35:14.815Z,101248.89
2018-06-14T00:36:20.262Z,101250.59
2018-06-14T00:37:25.661Z,101248.54
2018-06-14T00:38:31.449Z,101247.28
2018-06-14T00:39:37.280Z,101247.00
2018-06-14T00:40:42.840Z,101245.72
2018-06-14T00:41:48.268Z,101249.64
2018-06-14T00:42:53.755Z,101241.57
2018-06-14T00:43:58.839Z,101241.66
2018-06-14T00:45:04.237Z,101239.96
2018-06-14T00:46:09.713Z,101239.61
2018-06-14T00:47:15.410Z,101237.07
2018-06-14T00:48:20.855Z,101241.60
2018-06-14T00:49:26.489Z,101238.61
2018-06-14T00:50:31.935Z,101238.23
2018-06-14T00:51:37.296Z,101237.81
2018-06-14T00:52:42.685Z,101237.33
2018-06-14T00:53:48.116Z,101238.06
2018-06-14T00:54:53.667Z,101237.20
2018-06-14T00:55:59.109Z,101235.95
2018-06-14T00:57:27.626Z,101237.55
2018-06-14T00:58:33.079Z,101236.55
2018-06-14T00:59:38.490Z,101236.04
2018-06-14T01:00:43.926Z,101235.17
2018-06-14T01:01:49.713Z,101235.30
2018-06-14T01:02:55.150Z,101237.45
2018-06-14T01:04:00.932Z,101234.05
2018-06-14T01:05:06.574Z,101236.04
2018-06-14T01:06:12.125Z,101233.89
2018-06-14T01:07:17.562Z,101237.64
2018-06-14T01:08:22.967Z,101237.61
2018-06-14T01:09:28.419Z,101239.28
2018-06-14T01:10:34.308Z,101229.38
2018-06-14T01:11:40.272Z,101230.73
2018-06-14T01:12:45.893Z,101231.34
2018-06-14T01:13:51.317Z,101229.64
2018-06-14T01:14:56.878Z,101227.45
2018-06-14T01:16:02.509Z,101231.70
2018-06-14T01:17:08.608Z,101224.89
2018-06-14T01:18:14.049Z,101226.17
2018-06-14T01:19:19.462Z,101224.02
2018-06-14T01:20:24.998Z,101225.23
2018-06-14T01:21:31.142Z,101217.08
2018-06-14T01:22:36.612Z,101229.93
2018-06-14T01:23:42.014Z,101224.85
2018-06-14T01:24:47.484Z,101225.38
2018-06-14T01:25:52.938Z,101218.91
2018-06-14T01:26:58.645Z,101217.38
2018-06-14T01:28:04.160Z,101214.45
2018-06-14T01:29:09.556Z,101224.70
2018-06-14T01:30:14.993Z,101217.41
2018-06-14T01:31:20.862Z,101218.27
2018-06-14T01:32:26.709Z,101216.09
2018-06-14T01:33:32.108Z,101212.30
2018-06-14T01:34:37.580Z,101212.27
2018-06-14T01:35:43.055Z,101209.69
2018-06-14T01:36:48.582Z,101216.54
2018-06-14T01:38:10.694Z,101210.50
2018-06-14T01:39:16.103Z,101211.02
2018-06-14T01:40:21.561Z,101211.02
2018-06-14T01:41:26.989Z,101208.05
2018-06-14T01:42:32.402Z,101214.55
2018-06-14T01:43:38.170Z,101212.72
2018-06-14T01:44:43.630Z,101207.61
2018-06-14T01:45:49.039Z,101211.41
2018-06-14T01:46:54.441Z,101210.56
2018-06-14T01:47:59.963Z,101209.67
2018-06-14T01:49:05.730Z,101205.81
2018-06-14T01:50:11.191Z,101206.30
2018-06-14T01:51:16.617Z,101209.28
2018-06-14T01:52:22.001Z,101209.16
2018-06-14T01:53:27.422Z,101209.95
2018-06-14T01:54:33.198Z,101209.13
2018-06-14T01:55:38.739Z,101210.47
2018-06-14T01:56:44.256Z,101203.56
2018-06-14T01:57:49.716Z,101209.47
2018-06-14T01:58:55.107Z,101205.17
2018-06-14T02:00:00.989Z,101205.68
2018-06-14T02:01:06.446Z,101204.50
2018-06-14T02:02:12.159Z,101198.62
2018-06-14T02:03:17.581Z,101204.17
2018-06-14T02:04:23.026Z,101196.53
2018-06-14T02:05:28.885Z,101200.32
2018-06-14T02:06:34.370Z,101197.91
2018-06-14T02:07:39.822Z,101194.95
2018-06-14T02:08:45.241Z,101192.35
2018-06-14T02:09:50.653Z,101191.42
2018-06-14T02:10:56.314Z,101194.02
2018-06-14T02:12:01.787Z,101185.97
2018-06-14T02:13:07.249Z,101193.64
2018-06-14T02:14:12.781Z,101187.41
2018-06-14T02:15:18.221Z,101188.21
2018-06-14T02:16:23.833Z,101187.80
2018-06-14T02:17:29.297Z,101184.00
2018-06-14T02:18:34.731Z,101183.55
2018-06-14T02:19:40.201Z,101189.40
2018-06-14T02:20:45.629Z,101179.89
2018-06-14T02:21:51.621Z,101180.80
2018-06-14T02:22:57.065Z,101186.73
2018-06-14T02:24:02.466Z,101184.12
2018-06-14T02:25:07.892Z,101183.52
2018-06-14T02:26:13.341Z,101185.64
2018-06-14T02:27:18.774Z,101188.82
2018-06-14T02:28:24.196Z,101184.87
2018-06-14T02:29:29.645Z,101192.48
2018-06-14T02:30:35.121Z,101190.27
2018-06-14T02:31:40.590Z,101186.09
2018-06-14T02:32:46.333Z,101186.22
2018-06-14T02:33:51.766Z,101186.19
2018-06-14T02:34:57.170Z,101191.67
2018-06-14T02:36:02.658Z,101192.06
2018-06-14T02:37:08.142Z,101193.41
2018-06-14T02:38:13.631Z,101193.90
2018-06-14T02:39:19.111Z,101192.48
2018-06-14T02:40:24.531Z,101193.73
2018-06-14T02:41:29.965Z,101189.91
2018-06-14T02:42:35.576Z,101190.84
2018-06-14T02:43:41.350Z,101189.56
2018-06-14T02:44:46.862Z,101186.86
2018-06-14T02:45:52.263Z,101188.14
2018-06-14T02:46:57.673Z,101186.50
2018-06-14T02:48:03.114Z,101187.27
2018-06-14T02:49:09.072Z,101187.73
2018-06-14T02:50:14.525Z,101184.73
2018-06-14T02:51:20.010Z,101181.65
2018-06-14T02:52:25.434Z,101180.40
2018-06-14T02:53:31.247Z,101175.36
2018-06-14T02:54:36.700Z,101180.95
2018-06-14T02:55:42.153Z,101172.92
2018-06-14T02:56:47.549Z,101170.52
2018-06-14T02:57:52.953Z,101177.03
2018-06-14T02:58:58.373Z,101176.14
2018-06-14T03:00:03.893Z,101175.17
2018-06-14T03:01:09.312Z,101179.06
2018-06-14T03:02:14.740Z,101174.37
2018-06-14T03:03:20.155Z,101175.43
2018-06-14T03:04:25.722Z,101180.09
2018-06-14T03:05:31.188Z,101180.50
2018-06-14T03:06:36.614Z,101177.48
2018-06-14T03:07:42.034Z,101172.22
2018-06-14T03:08:47.445Z,101176.07
2018-06-14T03:09:52.874Z,101179.03
2018-06-14T03:10:58.349Z,101176.04
2018-06-14T03:12:03.948Z,101176.04
2018-06-14T03:13:09.438Z,101177.91
2018-06-14T03:14:14.923Z,101174.05
2018-06-14T03:15:20.381Z,101181.44
2018-06-14T03:16:25.796Z,101173.38
2018-06-14T03:17:31.365Z,101172.37
2018-06-14T03:18:36.878Z,101171.00
2018-06-14T03:19:42.422Z,101172.70
2018-06-14T03:20:47.958Z,101170.09
2018-06-14T03:21:53.470Z,101170.61
2018-06-14T03:22:59.517Z,101168.78
2018-06-14T03:24:05.054Z,101166.50
2018-06-14T03:25:10.638Z,101166.63
2018-06-14T03:26:15.941Z,101169.23
2018-06-14T03:27:21.281Z,101163.16
2018-06-14T03:28:27.237Z,101161.81
2018-06-14T03:29:32.685Z,101157.88
2018-06-14T03:30:38.169Z,101167.30
2018-06-14T03:31:43.789Z,101164.06
2018-06-14T03:32:50.318Z,101170.90
2018-06-14T03:33:55.773Z,101169.20
2018-06-14T03:35:01.213Z,101170.41
2018-06-14T03:36:06.676Z,101169.06
2018-06-14T03:37:12.203Z,101165.34
2018-06-14T03:38:17.826Z,101164.47
2018-06-14T03:39:23.251Z,101166.11
2018-06-14T03:40:29.060Z,101161.39
2018-06-14T03:41:34.470Z,101161.88
2018-06-14T03:42:46.822Z,101162.64
2018-06-14T03:43:52.452Z,101162.09
2018-06-14T03:44:57.970Z,101158.69
2018-06-14T03:46:03.460Z,101161.33
2018-06-14T03:47:09.279Z,101156.64
2018-06-14T03:48:14.693Z,101156.95
2018-06-14T03:49:19.865Z,101160.64
2018-06-14T03:50:25.502Z,101159.22
2018-06-14T03:51:30.953Z,101160.44
2018-06-14T03:52:36.522Z,101164.36
2018-06-14T03:53:41.945Z,101158.38
2018-06-14T03:54:47.401Z,101161.58
2018-06-14T03:55:52.858Z,101165.27
2018-06-14T03:56:58.251Z,101160.02
2018-06-14T03:58:03.745Z,101163.36
2018-06-14T03:59:09.223Z,101163.32
2018-06-14T04:00:14.630Z,101160.23
2018-06-14T04:01:20.158Z,101161.83
2018-06-14T04:02:25.280Z,101158.32
2018-06-14T04:03:30.593Z,101155.98
2018-06-14T04:04:35.996Z,101155.19
2018-06-14T04:05:41.585Z,101155.05
2018-06-14T04:06:47.446Z,101153.41
2018-06-14T04:07:52.858Z,101153.45
2018-06-14T04:08:58.342Z,101163.11
2018-06-14T04:10:03.870Z,101161.17
2018-06-14T04:11:09.282Z,101156.91
2018-06-14T04:12:14.778Z,101159.13
2018-06-14T04:13:20.182Z,101155.34
2018-06-14T04:14:25.623Z,101152.92
2018-06-14T04:15:31.078Z,101151.66
2018-06-14T04:16:37.641Z,101149.22
2018-06-14T04:17:43.109Z,101152.09
2018-06-14T04:18:48.526Z,101151.27
2018-06-14T04:19:54.033Z,101149.77
2018-06-14T04:20:59.465Z,101151.80
2018-06-14T04:22:04.929Z,101147.39
2018-06-14T04:23:10.406Z,101153.58
2018-06-14T04:24:15.686Z,101150.00
2018-06-14T04:25:21.166Z,101152.09
2018-06-14T04:26:26.969Z,101145.23
2018-06-14T04:27:32.467Z,101149.64
2018-06-14T04:28:37.912Z,101148.09
2018-06-14T04:29:43.778Z,101139.70
2018-06-14T04:30:49.206Z,101144.73
2018-06-14T04:31:54.593Z,101146.09
2018-06-14T04:33:00.161Z,101145.86
2018-06-14T04:34:05.684Z,101151.40
2018-06-14T04:35:11.102Z,101149.47
2018-06-14T04:36:16.543Z,101150.25
2018-06-14T04:37:21.984Z,101147.52
2018-06-14T04:38:27.393Z,101144.63
2018-06-14T04:39:32.818Z,101145.41
2018-06-14T04:40:38.228Z,101148.31
2018-06-14T04:41:43.673Z,101145.31
2018-06-14T04:42:49.518Z,101145.40
2018-06-14T04:43:54.953Z,101146.84
2018-06-14T04:45:00.374Z,101140.78
2018-06-14T04:46:06.290Z,101143.64
2018-06-14T04:47:11.804Z,101141.05
2018-06-14T04:48:17.345Z,101145.09
2018-06-14T04:49:22.864Z,101137.44
2018-06-14T04:50:28.301Z,101134.77
2018-06-14T04:51:37.757Z,101135.08
2018-06-14T04:52:43.174Z,101135.30
2018-06-14T04:53:48.754Z,101134.59
2018-06-14T04:54:54.201Z,101132.66
2018-06-14T04:55:59.660Z,101134.45
2018-06-14T04:57:05.685Z,101129.28
2018-06-14T04:58:11.604Z,101131.91
2018-06-14T04:59:17.016Z,101127.89
2018-06-14T05:00:22.594Z,101128.23
2018-06-14T05:01:28.080Z,101122.38
2018-06-14T05:02:33.504Z,101120.59
2018-06-14T05:03:39.108Z,101119.36
2018-06-14T05:04:44.713Z,101122.07
2018-06-14T05:05:50.249Z,101117.02
2018-06-14T05:06:55.398Z,101115.98
2018-06-14T05:08:00.721Z,101113.36
2018-06-14T05:09:10.714Z,101106.89
2018-06-14T05:10:16.782Z,101113.33
2018-06-14T05:11:22.193Z,101110.91
2018-06-14T05:12:27.635Z,101117.20
2018-06-14T05:13:33.126Z,101120.89
2018-06-14T05:14:38.635Z,101115.70
2018-06-14T05:15:44.083Z,101116.72
2018-06-14T05:16:49.576Z,101115.84
2018-06-14T05:17:55.252Z,101116.43
2018-06-14T05:19:00.702Z,101113.80
2018-06-14T05:20:06.669Z,101113.25
2018-06-14T05:21:12.086Z,101108.53
2018-06-14T05:22:17.488Z,101108.66
2018-06-14T05:23:22.920Z,101107.19
2018-06-14T05:24:28.346Z,101113.57
2018-06-14T05:25:33.876Z,101108.11
2018-06-14T05:26:39.294Z,101111.89
2018-06-14T05:27:44.707Z,101114.26
2018-06-14T05:28:50.153Z,101116.66
2018-06-14T05:29:55.606Z,101113.45
2018-06-14T05:31:01.045Z,101115.16
2018-06-14T05:32:06.525Z,101115.50
2018-06-14T05:33:12.034Z,101116.19
2018-06-14T05:34:17.474Z,101115.89
2018-06-14T05:35:22.913Z,101120.75
2018-06-14T05:36:28.478Z,101117.42
2018-06-14T05:37:33.616Z,101117.53
2018-06-14T05:38:39.065Z,101115.37
2018-06-14T05:39:44.462Z,101120.67
2018-06-14T05:40:49.882Z,101126.62
2018-06-14T05:41:55.354Z,101119.95
2018-06-14T05:43:00.802Z,101115.00
2018-06-14T05:44:06.305Z,101115.19
2018-06-14T05:45:11.718Z,101119.41
2018-06-14T05:46:17.148Z,101123.05
2018-06-14T05:47:22.637Z,101117.63
2018-06-14T05:48:28.068Z,101121.61
2018-06-14T05:49:33.505Z,101112.88
2018-06-14T05:50:39.009Z,101121.45
2018-06-14T05:51:44.465Z,101108.84
2018-06-14T05:52:49.857Z,101107.20
2018-06-14T05:53:55.288Z,101105.39
2018-06-14T05:55:00.739Z,101106.62
2018-06-14T05:56:05.836Z,101101.78
2018-06-14T05:57:11.300Z,101100.17
2018-06-14T05:58:16.762Z,101099.59
2018-06-14T05:59:22.231Z,101098.11
2018-06-14T06:00:27.724Z,101100.02
2018-06-14T06:01:33.178Z,101101.67
2018-06-14T06:02:38.446Z,101103.31
2018-06-14T06:03:43.805Z,101101.71
2018-06-14T06:04:49.203Z,101106.66
2018-06-14T06:05:54.673Z,101102.89
2018-06-14T06:07:00.085Z,101093.12
2018-06-14T06:08:05.508Z,101102.00
2018-06-14T06:09:12.416Z,101098.18
2018-06-14T06:10:17.956Z,101102.72
2018-06-14T06:11:23.374Z,101098.58
2018-06-14T06:12:28.802Z,101101.11
2018-06-14T06:13:34.294Z,101095.73
2018-06-14T06:14:39.708Z,101094.45
2018-06-14T06:15:45.226Z,101103.32
2018-06-14T06:16:50.753Z,101096.97
2018-06-14T06:17:56.182Z,101100.63
2018-06-14T06:19:01.633Z,101102.14
2018-06-14T06:20:16.930Z,101105.30
2018-06-14T06:21:22.832Z,101102.31
2018-06-14T06:22:28.271Z,101103.89
2018-06-14T06:23:33.774Z,101099.21
2018-06-14T06:24:39.247Z,101098.25
2018-06-14T06:25:44.653Z,101098.59
2018-06-14T06:26:50.333Z,101100.66
2018-06-14T06:27:55.748Z,101094.56
2018-06-14T06:29:01.143Z,101096.63
2018-06-14T06:30:06.893Z,101096.85
2018-06-14T06:31:12.314Z,101100.00
2018-06-14T06:32:18.157Z,101095.47
2018-06-14T06:33:23.728Z,101094.33
2018-06-14T06:34:29.461Z,101090.05
2018-06-14T06:35:35.149Z,101090.13
2018-06-14T06:36:40.762Z,101095.91
2018-06-14T06:37:46.380Z,101087.25
2018-06-14T06:38:51.856Z,101087.16
2018-06-14T06:39:58.306Z,101090.69
2018-06-14T06:41:03.769Z,101089.45
2018-06-14T06:42:09.285Z,101087.38
2018-06-14T06:43:14.806Z,101088.41
2018-06-14T06:44:20.204Z,101090.22
2018-06-14T06:45:25.691Z,101085.09
2018-06-14T06:46:31.125Z,101096.35
2018-06-14T06:47:36.552Z,101087.88
2018-06-14T06:48:42.410Z,101087.16
2018-06-14T06:49:48.187Z,101098.05
2018-06-14T06:50:53.372Z,101087.63
2018-06-14T06:51:58.697Z,101082.51
2018-06-14T06:53:05.688Z,101084.67
2018-06-14T06:54:11.560Z,101084.78
2018-06-14T06:55:16.997Z,101091.42
2018-06-14T06:56:22.396Z,101085.11
2018-06-14T06:57:28.508Z,101087.67
2018-06-14T06:58:33.936Z,101084.75
2018-06-14T06:59:39.477Z,101092.98
2018-06-14T07:00:44.881Z,101086.91
2018-06-14T07:01:50.381Z,101092.13
2018-06-14T07:02:55.855Z,101090.76
2018-06-14T07:04:01.258Z,101090.27
2018-06-14T07:05:07.285Z,101096.44
2018-06-14T07:06:12.903Z,101090.63
2018-06-14T07:07:18.161Z,101089.83
2018-06-14T07:08:23.568Z,101089.69
2018-06-14T07:09:28.950Z,101090.22
2018-06-14T07:10:34.597Z,101092.60
2018-06-14T07:11:40.001Z,101082.91
2018-06-14T07:12:45.413Z,101086.12
2018-06-14T07:13:50.865Z,101091.86
2018-06-14T07:14:56.365Z,101094.14
2018-06-14T07:16:01.805Z,101097.36
2018-06-14T07:17:07.973Z,101094.14
2018-06-14T07:18:13.497Z,101091.84
2018-06-14T07:19:18.924Z,101090.60
2018-06-14T07:20:24.380Z,101095.13
2018-06-14T07:21:30.234Z,101089.65
2018-06-14T07:22:35.634Z,101093.61
2018-06-14T07:23:41.046Z,101091.56
2018-06-14T07:24:46.533Z,101096.19
2018-06-14T07:25:52.299Z,101095.11
2018-06-14T07:26:58.112Z,101096.49
2018-06-14T07:28:03.507Z,101092.60
2018-06-14T07:29:08.926Z,101088.70
2018-06-14T07:30:14.418Z,101084.67
2018-06-14T07:31:19.890Z,101085.05
2018-06-14T07:32:25.321Z,101083.89
2018-06-14T07:33:30.782Z,101084.58
2018-06-14T07:34:36.202Z,101078.16
2018-06-14T07:35:41.738Z,101079.10
2018-06-14T07:36:47.178Z,101076.19
2018-06-14T07:37:52.627Z,101081.59
2018-06-14T07:38:58.092Z,101080.61
2018-06-14T07:40:03.646Z,101074.34
2018-06-14T07:41:09.065Z,101080.15
2018-06-14T07:42:14.457Z,101074.88
2018-06-14T07:43:19.925Z,101078.77
2018-06-14T07:44:25.440Z,101071.88
2018-06-14T07:45:30.841Z,101072.41
2018-06-14T07:46:36.239Z,101072.34
2018-06-14T07:47:41.639Z,101075.28
2018-06-14T07:48:47.056Z,101064.82
2018-06-14T07:49:52.590Z,101074.00
2018-06-14T07:50:58.397Z,101075.45
2018-06-14T07:52:03.813Z,101069.20
2018-06-14T07:53:09.221Z,101070.02
2018-06-14T07:54:14.669Z,101067.98
2018-06-14T07:55:20.088Z,101064.63
2018-06-14T07:56:25.566Z,101061.47
2018-06-14T07:57:30.957Z,101065.58
2018-06-14T07:58:36.694Z,101063.43
2018-06-14T07:59:42.100Z,101066.87
2018-06-14T08:00:47.522Z,101057.52
2018-06-14T08:01:53.318Z,101054.91
2018-06-14T08:02:58.749Z,101059.06
2018-06-14T08:04:04.161Z,101058.56
2018-06-14T08:05:09.618Z,101047.10
2018-06-14T08:06:15.029Z,101058.45
2018-06-14T08:07:20.609Z,101058.25
2018-06-14T08:08:26.040Z,101056.24
2018-06-14T08:09:31.526Z,101054.36
2018-06-14T08:10:36.993Z,101055.89
2018-06-14T08:11:42.695Z,101058.69
2018-06-14T08:12:48.194Z,101056.56
2018-06-14T08:13:53.620Z,101052.34
2018-06-14T08:14:59.054Z,101048.48
2018-06-14T08:16:04.506Z,101047.14
2018-06-14T08:17:09.993Z,101046.99
2018-06-14T08:18:15.618Z,101046.09
2018-06-14T08:19:21.038Z,101044.63
2018-06-14T08:20:26.737Z,101042.14
2018-06-14T08:21:32.175Z,101046.67
2018-06-14T08:22:37.625Z,101044.35
2018-06-14T08:23:43.547Z,101046.08
2018-06-14T08:24:48.973Z,101031.97
2018-06-14T08:25:54.555Z,101033.61
2018-06-14T08:26:59.977Z,101033.44
2018-06-14T08:28:05.448Z,101039.39
2018-06-14T08:29:11.113Z,101027.98
2018-06-14T08:30:16.630Z,101026.27
2018-06-14T08:31:22.070Z,101026.00
2018-06-14T08:32:27.485Z,101021.95
2018-06-14T08:33:33.100Z,101029.02
2018-06-14T08:34:38.502Z,101026.87
2018-06-14T08:35:43.898Z,101032.30
2018-06-14T08:36:49.305Z,101025.88
2018-06-14T08:37:54.761Z,101028.10
2018-06-14T08:39:00.202Z,101023.20
2018-06-14T08:40:05.741Z,101024.30
2018-06-14T08:41:11.214Z,101022.88
2018-06-14T08:42:16.661Z,101022.88
2018-06-14T08:43:22.089Z,101022.80
2018-06-14T08:44:27.710Z,101023.46
2018-06-14T08:45:33.226Z,101017.70
2018-06-14T08:46:38.613Z,101012.53
2018-06-14T08:47:44.039Z,101020.26
2018-06-14T08:48:49.456Z,101023.51
2018-06-14T08:49:55.109Z,101019.22
2018-06-14T08:51:00.559Z,101017.65
2018-06-14T08:52:06.193Z,101004.62
2018-06-14T08:53:11.604Z,101002.20
2018-06-14T08:54:16.997Z,101004.97
2018-06-14T08:55:22.443Z,101012.77
2018-06-14T08:56:27.865Z,101002.25
2018-06-14T08:57:33.470Z,101005.50
2018-06-14T08:58:38.929Z,101009.64
2018-06-14T08:59:44.316Z,101006.73
2018-06-14T09:00:49.818Z,101008.98
2018-06-14T09:01:55.289Z,101012.05
2018-06-14T09:03:00.754Z,101008.80
2018-06-14T09:04:06.272Z,101013.36
2018-06-14T09:05:11.726Z,101016.27
2018-06-14T09:06:17.181Z,101014.13
2018-06-14T09:07:22.673Z,101012.70
2018-06-14T09:08:28.361Z,101019.22
2018-06-14T09:09:33.777Z,101018.56
2018-06-14T09:10:39.217Z,101018.48
2018-06-14T09:11:44.938Z,101011.88
2018-06-14T09:12:50.503Z,101017.08
2018-06-14T09:13:56.034Z,101018.95
2018-06-14T09:15:01.475Z,101010.88
2018-06-14T09:16:06.950Z,101010.48
2018-06-14T09:17:12.359Z,101009.08
2018-06-14T09:18:18.145Z,101003.63
2018-06-14T09:19:23.717Z,101005.00
2018-06-14T09:20:29.258Z,101007.14
2018-06-14T09:21:34.695Z,101008.81
2018-06-14T09:22:40.122Z,101007.87
2018-06-14T09:23:45.568Z,101010.84
2018-06-14T09:24:51.214Z,101006.34
2018-06-14T09:25:56.618Z,101004.16
2018-06-14T09:27:02.057Z,101002.54
2018-06-14T09:28:07.498Z,101003.59
2018-06-14T09:29:12.926Z,101009.79
2018-06-14T09:30:18.728Z,101009.73
2018-06-14T09:31:24.169Z,101008.30
2018-06-14T09:32:29.565Z,101010.69
2018-06-14T09:33:34.979Z,101005.39
2018-06-14T09:34:40.409Z,101014.23
2018-06-14T09:35:45.883Z,101011.05
2018-06-14T09:36:51.342Z,101006.18
2018-06-14T09:37:56.741Z,100999.66
2018-06-14T09:39:02.409Z,100999.27
2018-06-14T09:40:07.875Z,101000.86
2018-06-14T09:41:13.438Z,101004.38
2018-06-14T09:42:18.854Z,101007.03
2018-06-14T09:43:24.341Z,101004.20
2018-06-14T09:44:29.766Z,101000.53
2018-06-14T09:45:35.183Z,101006.34
2018-06-14T09:46:40.652Z,101008.55
2018-06-14T09:47:46.163Z,101006.02
2018-06-14T09:48:57.369Z,101000.95
2018-06-14T09:50:02.765Z,101006.80
2018-06-14T09:51:08.225Z,101003.84
2018-06-14T09:52:13.755Z,101002.42
2018-06-14T09:53:19.197Z,101006.34
2018-06-14T09:54:24.629Z,101008.20
2018-06-14T09:55:30.043Z,101000.15
2018-06-14T09:56:35.659Z,100993.52
2018-06-14T09:57:41.109Z,101009.55
2018-06-14T09:58:46.517Z,101002.59
2018-06-14T09:59:52.394Z,100998.34
2018-06-14T10:00:57.787Z,101005.50
2018-06-14T10:02:03.246Z,100998.67
2018-06-14T10:03:08.759Z,101001.89
2018-06-14T10:04:14.213Z,100992.78
2018-06-14T10:05:19.649Z,100996.66
2018-06-14T10:06:25.076Z,100993.48
2018-06-14T10:07:30.492Z,101002.29
2018-06-14T10:08:35.888Z,100999.13
2018-06-14T10:09:41.275Z,100998.84
2018-06-14T10:10:46.683Z,100997.99
2018-06-14T10:11:52.273Z,101001.33
2018-06-14T10:12:57.871Z,100996.92
2018-06-14T10:14:03.266Z,100989.80
2018-06-14T10:15:08.696Z,100996.72
2018-06-14T10:16:14.143Z,100991.79
2018-06-14T10:17:19.539Z,101003.15
2018-06-14T10:18:25.701Z,100996.95
2018-06-14T10:19:31.115Z,100992.55
2018-06-14T10:20:36.720Z,100994.78
2018-06-14T10:21:42.156Z,101006.37
2018-06-14T10:22:47.562Z,101001.05
2018-06-14T10:23:53.157Z,101000.22
2018-06-14T10:24:58.558Z,100994.73
2018-06-14T10:26:03.996Z,100994.68
2018-06-14T10:27:09.393Z,100991.94
2018-06-14T10:28:14.816Z,100995.02
2018-06-14T10:29:20.315Z,100998.84
2018-06-14T10:30:25.732Z,100994.61
2018-06-14T10:31:31.269Z,100996.97
2018-06-14T10:32:36.705Z,100993.13
2018-06-14T10:33:42.137Z,100997.35
2018-06-14T10:34:47.754Z,100998.53
2018-06-14T10:35:53.166Z,100986.95
2018-06-14T10:36:58.599Z,100988.08
2018-06-14T10:38:04.110Z,100990.86
2018-06-14T10:39:09.874Z,100993.03
2018-06-14T10:40:15.350Z,100993.55
2018-06-14T10:41:21.732Z,100994.02
2018-06-14T10:42:27.147Z,100987.16
2018-06-14T10:43:32.615Z,100991.84
2018-06-14T10:44:37.971Z,100998.56
2018-06-14T10:45:43.525Z,100995.77
2018-06-14T10:46:48.977Z,101002.83
2018-06-14T10:47:54.349Z,100989.99
2018-06-14T10:48:59.762Z,100991.91
2018-06-14T10:50:05.199Z,100990.72
2018-06-14T10:51:10.654Z,100988.36
2018-06-14T10:52:16.128Z,100988.73
2018-06-14T10:53:21.528Z,100990.31
2018-06-14T10:54:27.283Z,100981.51
2018-06-14T10:55:32.683Z,100983.04
2018-06-14T10:56:38.396Z,100976.47
2018-06-14T10:57:43.826Z,100975.17
2018-06-14T10:58:49.231Z,100980.30
2018-06-14T10:59:54.657Z,100984.48
2018-06-14T11:01:00.173Z,100980.28
2018-06-14T11:02:05.723Z,100977.80
2018-06-14T11:03:11.232Z,100974.48
2018-06-14T11:04:16.620Z,100983.74
2018-06-14T11:05:22.026Z,100982.09
2018-06-14T11:06:27.436Z,100984.81
2018-06-14T11:07:32.854Z,100991.57
2018-06-14T11:08:38.273Z,100986.30
2018-06-14T11:09:43.694Z,100975.96
2018-06-14T11:10:49.305Z,100980.89
2018-06-14T11:11:54.700Z,100983.59
2018-06-14T11:13:00.106Z,100985.38
2018-06-14T11:14:05.641Z,100984.09
2018-06-14T11:15:11.116Z,100978.39
2018-06-14T11:16:16.525Z,100981.63
2018-06-14T11:17:21.941Z,100982.33
2018-06-14T11:18:27.396Z,100971.23
2018-06-14T11:19:32.774Z,100984.92
2018-06-14T11:20:38.334Z,100981.00
2018-06-14T11:21:43.732Z,100978.75
2018-06-14T11:22:49.149Z,100974.22
2018-06-14T11:23:54.545Z,100977.80
2018-06-14T11:25:01.800Z,100973.04
2018-06-14T11:26:07.459Z,100974.47
2018-06-14T11:27:12.868Z,100970.28
2018-06-14T11:28:18.269Z,100971.73
2018-06-14T11:29:23.698Z,100974.70
2018-06-14T11:30:29.105Z,100969.58
2018-06-14T11:31:34.581Z,100976.23
2018-06-14T11:32:40.027Z,100970.17
2018-06-14T11:33:45.437Z,100967.32
2018-06-14T11:34:51.068Z,100960.54
2018-06-14T11:35:57.490Z,100962.69
2018-06-14T11:37:02.957Z,100965.06
2018-06-14T11:38:08.408Z,100954.92
2018-06-14T11:39:13.843Z,100961.94
2018-06-14T11:40:19.281Z,100959.55
2018-06-14T11:41:24.703Z,100956.36
2018-06-14T11:42:30.163Z,100954.08
2018-06-14T11:43:35.650Z,100958.98
2018-06-14T11:44:41.077Z,100961.34
2018-06-14T11:45:46.483Z,100957.78
2018-06-14T11:46:51.910Z,100958.27
2018-06-14T11:47:57.344Z,100961.48
2018-06-14T11:49:02.816Z,100954.09
2018-06-14T11:50:08.273Z,100949.56
2018-06-14T11:51:13.886Z,100952.17
2018-06-14T11:52:19.300Z,100954.33
2018-06-14T11:53:24.698Z,100953.50
2018-06-14T11:54:30.345Z,100959.19
2018-06-14T11:55:35.753Z,100951.33
2018-06-14T11:56:41.217Z,100954.08
2018-06-14T11:57:46.638Z,100952.64
2018-06-14T11:58:52.038Z,100947.39
2018-06-14T12:00:05.843Z,100955.65
2018-06-14T12:01:11.303Z,100951.16
2018-06-14T12:02:17.069Z,100944.02
2018-06-14T12:03:22.507Z,100949.17
2018-06-14T12:04:27.886Z,100946.88
2018-06-14T12:05:33.291Z,100943.97
2018-06-14T12:06:38.724Z,100943.23
2018-06-14T12:07:44.097Z,100945.08
2018-06-14T12:08:49.519Z,100941.36
2018-06-14T12:09:54.938Z,100947.27
2018-06-14T12:11:00.353Z,100943.06
2018-06-14T12:12:06.131Z,100940.53
2018-06-14T12:13:11.576Z,100944.47
2018-06-14T12:14:16.966Z,100934.92
2018-06-14T12:15:22.748Z,100934.02
2018-06-14T12:16:28.213Z,100933.56
2018-06-14T12:17:33.624Z,100932.64
2018-06-14T12:18:39.177Z,100932.52
2018-06-14T12:19:44.574Z,100930.58
2018-06-14T12:20:50.409Z,100927.50
2018-06-14T12:21:55.904Z,100928.95
2018-06-14T12:23:01.301Z,100927.38
2018-06-14T12:24:07.114Z,100925.86
2018-06-14T12:25:12.525Z,100921.91
2018-06-14T12:26:17.938Z,100928.80
2018-06-14T12:27:23.337Z,100928.93
2018-06-14T12:28:28.782Z,100925.46